Time;durP1;ratioP1;P1;durP2;ratioP2;P2;SDS_P1;SDS_P2;PMS_P1;PMS_P2;Temp;Humidity;BMP_temperature;BMP_pressure;BME280_temperature;BME280_humidity;BME280_pressure;Samples;Min_cycle;Max_cycle;Signal;HPM_P1;HPM_P2
2022/10/31 00:01:21;;;;;;;10.15;2.72;;;14.40;99.90;;;;;;5094735;28;20491;-47
2022/10/31 00:03:47;;;;;;;3.55;2.25;;;14.50;99.90;;;;;;5096259;28;20023;-45
2022/10/31 00:06:13;;;;;;;9.25;3.28;;;14.40;99.90;;;;;;5112153;28;20076;-50
2022/10/31 00:08:39;;;;;;;3.45;2.53;;;14.40;99.90;;;;;;5100850;28;20479;-42
2022/10/31 00:11:08;;;;;;;4.38;3.33;;;14.40;99.90;;;;;;5113775;28;20036;-38
2022/10/31 00:13:34;;;;;;;6.10;3.97;;;14.40;99.90;;;;;;5107072;28;20089;-44
2022/10/31 00:16:00;;;;;;;4.30;2.42;;;14.40;99.90;;;;;;5093854;28;20032;-45
2022/10/31 00:18:25;;;;;;;7.35;3.10;;;14.40;99.90;;;;;;5094470;28;20039;-42
2022/10/31 00:20:59;;;;;;;3.85;2.90;;;14.40;99.90;;;;;;5107255;28;20028;-42
2022/10/31 00:23:25;;;;;;;9.27;3.70;;;14.40;99.90;;;;;;5096230;28;20454;-37
2022/10/31 00:25:50;;;;;;;2.70;2.45;;;14.40;99.90;;;;;;5103814;28;20106;-44
2022/10/31 00:28:16;;;;;;;5.68;3.17;;;14.40;99.90;;;;;;5094870;28;20031;-45
2022/10/31 00:30:42;;;;;;;6.35;3.10;;;14.40;99.90;;;;;;5106306;28;20432;-35
2022/10/31 00:33:07;;;;;;;6.95;3.38;;;14.40;99.90;;;;;;5096055;28;20027;-47
2022/10/31 00:35:33;;;;;;;4.25;2.88;;;14.30;99.90;;;;;;5095374;28;20413;-43
2022/10/31 00:37:58;;;;;;;8.68;3.13;;;14.40;99.90;;;;;;5099020;28;20107;-50
2022/10/31 00:40:24;;;;;;;6.32;3.30;;;14.30;99.90;;;;;;5101036;28;20046;-42
2022/10/31 00:42:50;;;;;;;5.90;3.17;;;14.30;99.90;;;;;;5110217;28;20021;-38
2022/10/31 00:45:15;;;;;;;5.10;3.40;;;14.20;99.90;;;;;;5113002;27;20047;-33
2022/10/31 00:47:41;;;;;;;4.88;2.95;;;14.20;99.90;;;;;;5094050;28;20403;-37
2022/10/31 00:50:07;;;;;;;7.05;2.85;;;14.20;99.90;;;;;;5102929;28;20446;-36
2022/10/31 00:52:33;;;;;;;7.53;3.13;;;14.20;99.90;;;;;;5091866;28;20476;-37
2022/10/31 00:54:59;;;;;;;4.82;3.35;;;14.20;99.90;;;;;;5100899;28;20055;-34
2022/10/31 00:57:24;;;;;;;7.78;2.83;;;14.20;99.90;;;;;;5106404;28;20032;-32
2022/10/31 00:59:50;;;;;;;5.25;2.83;;;14.10;99.90;;;;;;5112486;28;20023;-34
2022/10/31 01:02:16;;;;;;;5.35;2.78;;;14.10;99.90;;;;;;5101176;28;20057;-43
2022/10/31 01:04:41;;;;;;;8.10;2.58;;;14.10;99.90;;;;;;5094462;28;20032;-49
2022/10/31 01:07:07;;;;;;;7.13;2.55;;;14.20;99.90;;;;;;5093045;28;20024;-42
2022/10/31 01:09:33;;;;;;;4.47;2.80;;;14.10;99.90;;;;;;5096822;28;20084;-39
2022/10/31 01:11:58;;;;;;;6.72;3.00;;;14.10;99.90;;;;;;5106904;28;20027;-46
2022/10/31 01:14:24;;;;;;;6.00;2.70;;;14.10;99.90;;;;;;5094593;28;20020;-40
2022/10/31 01:16:49;;;;;;;4.85;3.00;;;14.10;99.90;;;;;;5094134;28;20026;-41
2022/10/31 01:19:15;;;;;;;5.75;2.95;;;14.10;99.90;;;;;;5094288;28;20526;-40
2022/10/31 01:21:41;;;;;;;7.25;2.85;;;14.10;99.90;;;;;;5094163;28;20027;-35
2022/10/31 01:24:07;;;;;;;4.75;3.40;;;14.10;99.90;;;;;;5094999;28;20102;-41
2022/10/31 01:26:33;;;;;;;9.20;3.03;;;14.10;99.90;;;;;;5110964;28;20535;-42
2022/10/31 01:29:06;;;;;;;4.45;2.75;;;14.10;99.90;;;;;;5102109;28;20123;-43
2022/10/31 01:31:35;;;;;;;4.20;2.88;;;14.00;99.90;;;;;;5093731;28;20673;-42
2022/10/31 01:34:01;;;;;;;5.15;2.83;;;13.90;99.90;;;;;;5103137;28;20487;-40
2022/10/31 01:36:33;;;;;;;7.85;2.72;;;13.90;99.90;;;;;;5100918;28;20080;-46
2022/10/31 01:39:04;;;;;;;5.82;2.58;;;13.80;99.90;;;;;;5092681;28;20103;-31
2022/10/31 01:41:33;;;;;;;8.25;3.00;;;13.80;99.90;;;;;;5107264;27;20054;-41
2022/10/31 01:44:20;;;;;;;3.00;2.70;;;13.80;99.90;;;;;;5115550;27;20031;-43
2022/10/31 01:46:49;;;;;;;3.28;2.50;;;13.80;99.90;;;;;;5072430;28;20048;-42
2022/10/31 01:49:17;;;;;;;3.70;2.78;;;13.70;99.90;;;;;;5097791;28;20024;-42
2022/10/31 01:51:49;;;;;;;3.88;2.90;;;13.70;99.90;;;;;;5107284;28;20391;-47
2022/10/31 01:54:18;;;;;;;5.47;2.95;;;13.70;99.90;;;;;;5112328;28;20387;-44
2022/10/31 01:56:50;;;;;;;3.05;2.75;;;13.70;99.90;;;;;;5113341;28;20393;-40
2022/10/31 01:59:19;;;;;;;7.45;3.22;;;13.60;99.90;;;;;;5096520;28;20533;-41
2022/10/31 02:01:45;;;;;;;5.63;3.40;;;13.60;99.90;;;;;;5097412;28;20019;-42
2022/10/31 02:04:11;;;;;;;6.10;3.10;;;13.60;99.90;;;;;;5104239;28;20028;-40
2022/10/31 02:06:50;;;;;;;4.25;3.40;;;13.60;99.90;;;;;;5095447;28;20028;-39
2022/10/31 02:09:23;;;;;;;5.60;3.22;;;13.60;99.90;;;;;;5110780;28;20092;-41
2022/10/31 02:11:51;;;;;;;9.93;3.30;;;13.50;99.90;;;;;;5111726;28;20027;-37
2022/10/31 02:14:16;;;;;;;12.98;3.25;;;13.50;99.90;;;;;;5098134;28;20047;-36
2022/10/31 02:16:42;;;;;;;7.90;3.83;;;13.50;99.90;;;;;;5096454;28;20028;-37
2022/10/31 02:19:12;;;;;;;5.82;3.28;;;13.50;99.90;;;;;;5105479;28;20028;-41
2022/10/31 02:22:03;;;;;;;4.55;3.08;;;13.50;99.90;;;;;;5098685;28;20012;-41
2022/10/31 02:24:42;;;;;;;3.53;2.95;;;13.50;99.90;;;;;;5094565;28;20046;-41
2022/10/31 02:27:14;;;;;;;5.07;3.25;;;13.50;99.90;;;;;;5094717;28;20467;-39
2022/10/31 02:30:11;;;;;;;6.00;3.80;;;13.50;99.90;;;;;;5093815;28;20115;-40
2022/10/31 02:32:55;;;;;;;8.27;3.80;;;13.50;99.90;;;;;;5099531;28;20023;-43
2022/10/31 02:35:33;;;;;;;10.70;3.80;;;13.50;99.90;;;;;;5100313;28;20024;-49
2022/10/31 02:38:19;;;;;;;7.10;3.30;;;13.40;99.90;;;;;;5100937;28;20081;-41
2022/10/31 02:40:51;;;;;;;4.75;3.42;;;13.40;99.90;;;;;;5116623;28;20390;-33
2022/10/31 02:43:35;;;;;;;5.90;3.67;;;13.40;99.90;;;;;;5107417;27;20479;-37
2022/10/31 02:46:19;;;;;;;7.63;3.58;;;13.40;99.90;;;;;;5111945;28;20031;-33
2022/10/31 02:48:48;;;;;;;6.75;3.85;;;13.30;99.90;;;;;;5101266;28;20024;-40
2022/10/31 02:51:15;;;;;;;6.65;3.97;;;13.30;99.90;;;;;;5100317;28;20024;-36
2022/10/31 02:53:40;;;;;;;6.83;3.60;;;13.30;99.90;;;;;;5103336;28;20046;-41
2022/10/31 02:56:15;;;;;;;7.50;3.95;;;13.20;99.90;;;;;;5115157;28;20051;-36
2022/10/31 02:59:13;;;;;;;6.68;4.20;;;13.20;99.90;;;;;;5099937;28;20472;-35
2022/10/31 03:02:09;;;;;;;4.63;3.40;;;13.20;99.90;;;;;;5077988;28;20495;-37
2022/10/31 03:04:55;;;;;;;7.53;3.80;;;13.20;99.90;;;;;;5114392;28;20540;-32
2022/10/31 03:07:32;;;;;;;6.27;3.90;;;13.10;99.90;;;;;;5111100;28;20464;-38
2022/10/31 03:10:08;;;;;;;10.82;4.50;;;13.10;99.90;;;;;;5102112;28;20495;-35
2022/10/31 03:12:34;;;;;;;12.68;4.97;;;13.10;99.90;;;;;;5096152;28;20547;-35
2022/10/31 03:15:21;;;;;;;9.65;4.57;;;13.10;99.90;;;;;;5093785;28;20115;-35
2022/10/31 03:18:06;;;;;;;18.57;5.13;;;13.10;99.90;;;;;;5102150;28;20471;-40
2022/10/31 03:20:44;;;;;;;11.23;4.38;;;13.10;99.90;;;;;;5098759;28;20451;-44
2022/10/31 03:23:11;;;;;;;;;;;13.00;99.90;;;;;;5108896;28;20562;-42
2022/10/31 03:25:39;;;;;;;8.82;5.20;;;13.00;99.90;;;;;;5098625;28;20359;-39
2022/10/31 03:28:08;;;;;;;11.27;5.65;;;13.00;99.90;;;;;;5095360;28;20047;-39
2022/10/31 03:30:37;;;;;;;10.15;6.18;;;12.90;99.90;;;;;;5111460;28;20023;-36
2022/10/31 03:33:06;;;;;;;11.73;5.57;;;12.90;99.90;;;;;;5102225;28;20484;-32
2022/10/31 03:35:34;;;;;;;9.57;6.38;;;12.80;99.90;;;;;;5104388;28;20111;-35
2022/10/31 03:38:01;;;;;;;20.48;7.05;;;12.80;99.90;;;;;;5095657;28;20372;-35
2022/10/31 03:40:27;;;;;;;14.93;7.50;;;12.80;99.90;;;;;;5096343;28;20027;-36
2022/10/31 03:43:03;;;;;;;18.23;6.53;;;12.80;99.90;;;;;;5096484;28;20416;-35
2022/10/31 03:45:30;;;;;;;11.32;6.57;;;12.80;99.90;;;;;;5101013;28;20032;-36
2022/10/31 03:48:00;;;;;;;13.18;6.88;;;12.70;99.90;;;;;;5109567;28;20510;-37
2022/10/31 03:50:33;;;;;;;13.52;6.65;;;12.70;99.90;;;;;;5104243;28;20453;-37
2022/10/31 03:53:09;;;;;;;14.40;7.18;;;12.70;99.90;;;;;;5104531;28;20035;-38
2022/10/31 03:55:40;;;;;;;10.75;6.55;;;12.70;99.90;;;;;;5111239;28;20396;-43
2022/10/31 03:58:17;;;;;;;12.18;6.28;;;12.60;99.90;;;;;;5094829;28;20032;-38
2022/10/31 04:00:45;;;;;;;15.52;8.07;;;12.60;99.90;;;;;;5104961;28;20062;-41
2022/10/31 04:03:15;;;;;;;17.52;7.03;;;12.60;99.90;;;;;;5095164;28;20488;-41
2022/10/31 04:05:45;;;;;;;12.57;7.55;;;12.60;99.90;;;;;;5096019;28;20032;-52
2022/10/31 04:08:17;;;;;;;15.23;6.60;;;12.60;99.90;;;;;;5107860;28;20039;-33
2022/10/31 04:10:44;;;;;;;15.40;7.97;;;12.60;99.90;;;;;;5109475;28;20036;-42
2022/10/31 04:13:16;;;;;;;16.30;6.93;;;12.60;99.90;;;;;;5108726;27;20035;-42
2022/10/31 04:15:44;;;;;;;9.77;6.32;;;12.60;99.90;;;;;;5112440;28;20626;-38
2022/10/31 04:18:09;;;;;;;12.95;6.65;;;12.60;99.90;;;;;;5112474;28;20387;-57
2022/10/31 04:20:37;;;;;;;15.38;7.25;;;12.60;99.90;;;;;;5096843;28;20100;-42
2022/10/31 04:23:04;;;;;;;13.15;6.70;;;12.60;99.90;;;;;;5109308;28;20540;-42
2022/10/31 04:25:29;;;;;;;17.42;6.97;;;12.60;99.90;;;;;;5100349;28;20471;-42
2022/10/31 04:27:55;;;;;;;16.10;7.50;;;12.60;99.90;;;;;;5110970;28;20140;-42
2022/10/31 04:30:21;;;;;;;13.48;7.18;;;12.60;99.90;;;;;;5099308;28;20107;-43
2022/10/31 04:32:47;;;;;;;18.45;7.60;;;12.60;99.90;;;;;;5095440;28;20050;-42
2022/10/31 04:35:12;;;;;;;16.50;7.60;;;12.60;99.90;;;;;;5101944;28;20111;-38
2022/10/31 04:37:38;;;;;;;13.68;7.55;;;12.50;99.90;;;;;;5098848;28;20034;-34
2022/10/31 04:40:05;;;;;;;11.57;7.88;;;12.50;99.90;;;;;;5105438;28;20073;-34
2022/10/31 04:42:31;;;;;;;12.80;7.53;;;12.60;99.90;;;;;;5114127;27;20110;-38
2022/10/31 04:44:56;;;;;;;13.75;8.57;;;12.60;99.90;;;;;;5108578;28;20110;-41
2022/10/31 04:47:22;;;;;;;13.88;6.78;;;12.60;99.90;;;;;;5093093;28;20036;-42
2022/10/31 04:49:48;;;;;;;14.80;7.68;;;12.60;99.90;;;;;;5096047;28;20050;-42
2022/10/31 04:52:13;;;;;;;14.25;8.02;;;12.60;99.90;;;;;;5095717;28;20058;-54
2022/10/31 04:54:39;;;;;;;14.15;7.80;;;12.60;99.90;;;;;;5099821;28;20036;-44
2022/10/31 04:57:05;;;;;;;16.92;7.75;;;12.50;99.90;;;;;;5092902;28;20024;-42
2022/10/31 04:59:31;;;;;;;17.73;8.20;;;12.50;99.90;;;;;;5102760;28;20490;-42
2022/10/31 05:01:56;;;;;;;16.17;7.38;;;12.50;99.90;;;;;;5103165;28;20028;-42
2022/10/31 05:04:22;;;;;;;19.55;7.75;;;12.50;99.90;;;;;;5094651;28;20024;-41
2022/10/31 05:06:48;;;;;;;14.63;7.75;;;12.50;99.90;;;;;;5104161;28;20392;-42
2022/10/31 05:09:13;;;;;;;17.00;7.55;;;12.40;99.90;;;;;;5101187;28;20442;-42
2022/10/31 05:11:39;;;;;;;12.95;7.90;;;12.40;99.90;;;;;;5105434;28;20027;-42
2022/10/31 05:14:04;;;;;;;10.65;6.72;;;12.40;99.90;;;;;;5110472;28;20471;-42
2022/10/31 05:16:30;;;;;;;13.55;6.90;;;12.40;99.90;;;;;;5100883;28;20024;-44
2022/10/31 05:18:56;;;;;;;11.93;7.45;;;12.30;99.90;;;;;;5092155;28;20093;-39
2022/10/31 05:21:21;;;;;;;10.90;7.05;;;12.30;99.90;;;;;;5107806;28;20032;-43
2022/10/31 05:23:47;;;;;;;10.45;6.95;;;12.20;99.90;;;;;;5108156;28;20020;-42
2022/10/31 05:26:12;;;;;;;15.52;8.73;;;12.20;99.90;;;;;;5092890;28;20085;-41
2022/10/31 05:28:38;;;;;;;14.95;8.40;;;12.10;99.90;;;;;;5096076;28;20062;-45
2022/10/31 05:31:04;;;;;;;11.95;7.13;;;12.00;99.90;;;;;;5093161;28;20532;-41
2022/10/31 05:33:29;;;;;;;18.92;7.68;;;12.00;99.90;;;;;;5093020;28;20126;-45
2022/10/31 05:35:55;;;;;;;16.35;6.95;;;12.00;99.90;;;;;;5091325;28;20037;-43
2022/10/31 05:38:20;;;;;;;20.95;7.85;;;12.00;99.90;;;;;;5103753;28;20027;-40
2022/10/31 05:40:46;;;;;;;16.75;8.05;;;12.00;99.90;;;;;;5095498;28;20116;-49
2022/10/31 05:43:12;;;;;;;18.08;9.05;;;12.10;99.90;;;;;;5094498;28;20028;-41
2022/10/31 05:45:37;;;;;;;18.95;8.60;;;12.10;99.90;;;;;;5112970;28;20467;-42
2022/10/31 05:48:03;;;;;;;16.90;8.35;;;12.20;99.90;;;;;;5103600;28;20488;-42
2022/10/31 05:50:31;;;;;;;15.75;7.97;;;12.30;99.90;;;;;;5097845;28;20493;-43
2022/10/31 05:53:00;;;;;;;13.98;8.25;;;12.30;99.90;;;;;;5103283;28;20020;-41
2022/10/31 05:55:26;;;;;;;17.55;9.15;;;12.30;99.90;;;;;;5101398;28;20169;-41
2022/10/31 05:57:53;;;;;;;15.43;9.00;;;12.30;99.90;;;;;;5113118;28;20015;-43
2022/10/31 06:00:20;;;;;;;15.52;8.60;;;12.40;99.90;;;;;;5112390;28;20019;-60
2022/10/31 06:02:45;;;;;;;18.75;8.57;;;12.40;99.90;;;;;;5112797;28;20229;-42
2022/10/31 06:05:11;;;;;;;15.23;8.05;;;12.40;99.90;;;;;;5102024;28;20518;-41
2022/10/31 06:07:37;;;;;;;18.58;9.07;;;12.40;99.90;;;;;;5112853;28;20360;-41
2022/10/31 06:10:05;;;;;;;17.23;9.25;;;12.30;99.90;;;;;;5100139;28;20034;-41
2022/10/31 06:12:30;;;;;;;14.25;8.35;;;12.30;99.90;;;;;;5090319;28;20028;-37
2022/10/31 06:14:56;;;;;;;13.77;9.02;;;12.30;99.90;;;;;;5095305;28;20387;-35
2022/10/31 06:17:21;;;;;;;14.63;8.70;;;12.40;99.90;;;;;;5102594;28;20376;-32
2022/10/31 06:19:47;;;;;;;19.85;9.35;;;12.40;99.90;;;;;;5105339;28;20027;-33
2022/10/31 06:22:13;;;;;;;21.27;10.13;;;12.40;99.90;;;;;;5090571;28;20024;-40
2022/10/31 06:24:39;;;;;;;27.95;11.48;;;12.30;99.90;;;;;;5103088;28;20026;-41
2022/10/31 06:27:05;;;;;;;17.98;9.32;;;12.20;99.90;;;;;;5107936;28;20027;-41
2022/10/31 06:29:31;;;;;;;21.83;10.63;;;12.20;99.90;;;;;;5110756;28;20475;-41
2022/10/31 06:31:56;;;;;;;22.55;10.48;;;12.00;99.90;;;;;;5107750;28;20031;-36
2022/10/31 06:34:22;;;;;;;26.60;10.38;;;12.00;99.90;;;;;;5092141;28;20028;-48
2022/10/31 06:36:48;;;;;;;26.38;9.15;;;12.00;99.90;;;;;;5105727;28;20498;-42
2022/10/31 06:39:14;;;;;;;21.25;9.50;;;11.90;99.90;;;;;;5107560;28;20027;-41
2022/10/31 06:41:41;;;;;;;19.30;9.43;;;11.90;99.90;;;;;;5108223;28;20031;-42
2022/10/31 06:44:07;;;;;;;18.50;9.35;;;11.90;99.90;;;;;;5106439;28;20464;-42
2022/10/31 06:46:33;;;;;;;26.42;8.82;;;11.90;99.90;;;;;;5103174;28;20479;-40
2022/10/31 06:48:59;;;;;;;21.73;8.27;;;11.90;99.90;;;;;;5108645;28;20027;-41
2022/10/31 06:51:24;;;;;;;18.90;8.50;;;11.80;99.90;;;;;;5099691;28;20115;-42
2022/10/31 06:53:50;;;;;;;13.90;7.97;;;11.80;99.90;;;;;;5090881;28;20073;-41
2022/10/31 06:56:16;;;;;;;16.73;8.90;;;11.80;99.90;;;;;;5094807;28;20047;-36
2022/10/31 06:58:42;;;;;;;17.05;9.10;;;11.80;99.90;;;;;;5106153;28;20356;-34
2022/10/31 07:01:07;;;;;;;12.50;8.27;;;11.80;99.90;;;;;;5097514;28;20024;-36
2022/10/31 07:03:33;;;;;;;19.05;8.98;;;11.80;99.90;;;;;;5093558;28;20026;-36
2022/10/31 07:05:59;;;;;;;16.08;8.95;;;11.80;99.90;;;;;;5105626;28;20020;-35
2022/10/31 07:08:25;;;;;;;18.13;9.02;;;11.80;99.90;;;;;;5094887;28;20012;-34
2022/10/31 07:10:53;;;;;;;21.15;9.23;;;11.80;99.90;;;;;;5099072;28;20051;-34
2022/10/31 07:13:24;;;;;;;14.27;8.60;;;11.80;99.90;;;;;;5099844;28;20377;-37
2022/10/31 07:15:50;;;;;;;18.48;9.23;;;11.80;99.90;;;;;;5092830;28;20032;-37
2022/10/31 07:18:34;;;;;;;18.58;9.23;;;11.80;99.90;;;;;;5097302;28;20023;-39
2022/10/31 07:20:59;;;;;;;17.92;8.75;;;11.80;99.90;;;;;;5111967;28;20032;-38
2022/10/31 07:23:25;;;;;;;18.05;9.07;;;11.70;99.90;;;;;;5095702;28;20054;-38
2022/10/31 07:25:58;;;;;;;19.98;8.50;;;11.70;99.90;;;;;;5094893;28;20027;-37
2022/10/31 07:28:25;;;;;;;21.83;9.63;;;11.80;99.90;;;;;;5098315;28;20048;-32
2022/10/31 07:30:56;;;;;;;22.35;9.25;;;11.70;99.90;;;;;;5092575;28;20051;-35
2022/10/31 07:33:22;;;;;;;21.48;10.35;;;11.70;99.90;;;;;;5111725;28;20537;-40
2022/10/31 07:35:48;;;;;;;19.13;9.25;;;11.80;99.90;;;;;;5097603;28;20020;-43
2022/10/31 07:38:15;;;;;;;22.35;9.27;;;11.80;99.90;;;;;;5101661;28;20168;-35
2022/10/31 07:40:41;;;;;;;18.75;8.90;;;11.90;99.90;;;;;;5108639;28;20031;-40
2022/10/31 07:43:07;;;;;;;20.33;10.07;;;12.00;99.90;;;;;;5101117;28;20016;-39
2022/10/31 07:45:33;;;;;;;16.95;8.85;;;12.10;99.90;;;;;;5102870;28;20028;-34
2022/10/31 07:47:59;;;;;;;18.92;9.32;;;12.20;99.90;;;;;;5095716;28;20034;-36
2022/10/31 07:50:30;;;;;;;16.30;9.23;;;12.30;99.90;;;;;;5097165;28;20031;-42
2022/10/31 07:53:05;;;;;;;19.90;9.10;;;12.40;99.90;;;;;;5102174;28;20035;-35
2022/10/31 07:55:31;;;;;;;25.65;10.00;;;12.60;99.90;;;;;;5096621;28;20051;-38
2022/10/31 07:58:02;;;;;;;20.23;9.13;;;12.70;99.90;;;;;;5101408;28;20045;-41
2022/10/31 08:00:28;;;;;;;13.20;9.02;;;12.70;99.90;;;;;;5099196;27;20077;-38
2022/10/31 08:03:02;;;;;;;21.27;9.07;;;12.80;99.90;;;;;;5104661;28;20019;-41
2022/10/31 08:05:28;;;;;;;17.45;10.05;;;12.90;99.90;;;;;;5101323;28;20098;-38
2022/10/31 08:07:54;;;;;;;15.82;8.90;;;13.00;99.90;;;;;;5110290;28;20490;-42
2022/10/31 08:10:20;;;;;;;15.55;8.77;;;13.00;99.90;;;;;;5099827;28;20016;-51
2022/10/31 08:12:46;;;;;;;21.13;10.65;;;13.20;99.90;;;;;;5093729;28;20039;-36
2022/10/31 08:15:12;;;;;;;20.85;9.38;;;13.30;99.90;;;;;;5108791;28;20031;-37
2022/10/31 08:17:38;;;;;;;19.88;10.25;;;13.50;99.90;;;;;;5097842;28;20036;-37
2022/10/31 08:20:05;;;;;;;17.38;10.30;;;13.60;99.90;;;;;;5098339;28;20031;-38
2022/10/31 08:22:31;;;;;;;16.05;9.15;;;13.70;99.90;;;;;;5105941;27;20205;-37
2022/10/31 08:24:56;;;;;;;23.27;10.52;;;13.80;99.90;;;;;;5114429;28;20031;-41
2022/10/31 08:27:22;;;;;;;20.90;10.40;;;13.90;99.90;;;;;;5110980;28;20035;-34
2022/10/31 08:29:48;;;;;;;17.13;9.55;;;14.00;99.90;;;;;;5093635;28;20071;-45
2022/10/31 08:32:14;;;;;;;17.65;8.88;;;14.10;99.90;;;;;;5113000;27;20030;-42
2022/10/31 08:34:39;;;;;;;14.07;9.20;;;14.20;99.90;;;;;;5111381;28;20028;-44
2022/10/31 08:37:05;;;;;;;17.63;8.60;;;14.30;99.90;;;;;;5101697;28;20488;-39
2022/10/31 08:39:30;;;;;;;12.38;7.47;;;14.30;99.90;;;;;;5095377;28;20047;-44
2022/10/31 08:41:56;;;;;;;16.10;8.27;;;14.20;99.90;;;;;;5111612;27;20023;-36
2022/10/31 08:44:21;;;;;;;17.67;8.80;;;14.20;99.90;;;;;;5114847;28;20092;-33
2022/10/31 08:46:47;;;;;;;14.95;8.98;;;14.10;99.90;;;;;;5104937;28;20540;-33
2022/10/31 08:49:13;;;;;;;14.07;7.95;;;14.20;99.90;;;;;;5114856;28;20084;-36
2022/10/31 08:51:38;;;;;;;19.77;9.45;;;14.20;99.90;;;;;;5084099;28;20400;-41
2022/10/31 08:54:04;;;;;;;17.40;8.10;;;14.20;99.90;;;;;;5102538;28;20024;-32
2022/10/31 08:56:30;;;;;;;16.35;9.02;;;14.20;99.90;;;;;;5096880;28;20051;-32
2022/10/31 08:58:55;;;;;;;18.10;9.30;;;14.20;99.90;;;;;;5097263;28;20019;-37
2022/10/31 09:01:21;;;;;;;21.48;9.80;;;14.10;99.90;;;;;;5094628;28;20373;-49
2022/10/31 09:03:46;;;;;;;14.95;8.10;;;14.10;99.90;;;;;;5104267;28;20388;-37
2022/10/31 09:06:12;;;;;;;16.85;9.15;;;14.20;99.90;;;;;;5101967;28;20016;-40
2022/10/31 09:08:38;;;;;;;16.67;8.57;;;14.20;99.90;;;;;;5093908;28;20377;-41
2022/10/31 09:11:04;;;;;;;23.15;9.48;;;14.20;99.90;;;;;;5092885;28;20030;-44
2022/10/31 09:13:30;;;;;;;17.88;8.93;;;14.30;99.90;;;;;;5096925;28;20012;-42
2022/10/31 09:15:57;;;;;;;16.05;8.63;;;14.30;99.90;;;;;;5094406;28;20081;-42
2022/10/31 09:18:24;;;;;;;19.58;9.63;;;14.50;99.90;;;;;;5101121;28;20094;-49
2022/10/31 09:20:50;;;;;;;15.55;9.18;;;14.60;99.90;;;;;;5101484;28;20590;-39
2022/10/31 09:23:21;;;;;;;21.65;9.38;;;14.60;99.90;;;;;;5099414;28;20069;-38
2022/10/31 09:25:48;;;;;;;21.05;9.68;;;14.70;99.90;;;;;;5102199;28;20028;-36
2022/10/31 09:28:17;;;;;;;18.10;9.50;;;14.70;99.90;;;;;;5107180;28;20103;-35
2022/10/31 09:30:45;;;;;;;23.10;10.27;;;14.80;99.90;;;;;;5100980;28;20487;-34
2022/10/31 09:33:12;;;;;;;19.48;9.40;;;14.80;99.90;;;;;;5106947;27;20297;-37
2022/10/31 09:35:39;;;;;;;22.48;9.98;;;14.80;99.90;;;;;;5101942;28;20549;-33
2022/10/31 09:38:11;;;;;;;22.42;10.43;;;14.80;99.90;;;;;;5101186;28;20468;-42
2022/10/31 09:40:42;;;;;;;24.20;11.40;;;14.90;99.90;;;;;;5111063;28;20529;-41
2022/10/31 09:43:23;;;;;;;21.75;10.35;;;14.90;99.90;;;;;;5095262;28;20098;-41
2022/10/31 09:46:14;;;;;;;23.80;11.38;;;15.00;99.90;;;;;;5093845;28;20387;-40
2022/10/31 09:48:51;;;;;;;23.42;11.80;;;15.10;99.90;;;;;;5106691;28;20061;-42
2022/10/31 09:51:32;;;;;;;21.10;11.88;;;15.20;99.90;;;;;;5096302;28;20032;-45
2022/10/31 09:54:10;;;;;;;22.83;10.63;;;15.10;99.90;;;;;;5093266;28;20058;-43
2022/10/31 09:56:37;;;;;;;21.77;11.48;;;15.10;99.90;;;;;;5093208;28;20044;-42
2022/10/31 09:59:06;;;;;;;21.33;11.80;;;15.10;99.90;;;;;;5100047;28;20464;-44
2022/10/31 10:01:54;;;;;;;23.92;10.40;;;15.10;99.90;;;;;;5094799;28;20468;-44
2022/10/31 10:04:41;;;;;;;20.63;9.85;;;15.20;99.90;;;;;;5096188;28;20015;-43
2022/10/31 10:07:21;;;;;;;30.00;11.98;;;15.20;99.90;;;;;;5100747;28;20024;-43
2022/10/31 10:09:47;;;;;;;27.25;10.43;;;15.20;99.90;;;;;;5090667;28;20034;-58
2022/10/31 10:12:31;;;;;;;21.48;10.88;;;15.20;99.90;;;;;;5100716;28;20019;-44
2022/10/31 10:15:28;;;;;;;19.42;9.68;;;15.30;99.90;;;;;;5108491;28;20040;-57
2022/10/31 10:18:05;;;;;;;20.85;10.57;;;15.50;99.90;;;;;;5095992;28;20024;-41
2022/10/31 10:20:54;;;;;;;20.38;10.02;;;15.60;99.90;;;;;;5095475;28;20548;-43
2022/10/31 10:23:34;;;;;;;19.52;9.35;;;15.70;99.90;;;;;;5092686;28;20029;-40
2022/10/31 10:26:12;;;;;;;23.77;10.40;;;15.70;99.90;;;;;;5098284;28;20025;-41
2022/10/31 10:28:41;;;;;;;20.55;9.43;;;15.80;99.90;;;;;;5094992;28;20385;-44
2022/10/31 10:31:16;;;;;;;24.38;9.32;;;15.80;99.90;;;;;;5092836;28;20031;-41
2022/10/31 10:33:53;;;;;;;18.88;9.75;;;15.80;99.90;;;;;;5096095;28;20028;-42
2022/10/31 10:36:28;;;;;;;14.90;9.27;;;15.80;99.90;;;;;;5113281;28;20031;-41
2022/10/31 10:39:17;;;;;;;15.07;9.05;;;15.90;99.90;;;;;;5112248;28;20392;-42
2022/10/31 10:43:18;;;;;;;21.80;9.73;;;15.90;99.90;;;;;;5102695;28;20028;-47
2022/10/31 10:47:40;;;;;;;18.67;8.75;;;16.00;99.90;;;;;;5093174;28;20449;-42
2022/10/31 10:50:22;;;;;;;18.92;9.63;;;16.10;99.90;;;;;;5095561;28;20062;-43
2022/10/31 10:53:31;;;;;;;16.63;9.43;;;16.20;99.90;;;;;;5092610;28;20388;-43
2022/10/31 10:56:02;;;;;;;16.17;9.07;;;16.30;99.90;;;;;;5091922;28;20082;-46
2022/10/31 10:58:28;;;;;;;21.63;10.43;;;16.30;99.90;;;;;;5093176;28;20381;-38
2022/10/31 11:00:55;;;;;;;18.95;10.02;;;16.40;99.90;;;;;;5101406;28;20052;-39
2022/10/31 11:03:21;;;;;;;18.55;9.13;;;16.40;99.90;;;;;;5116992;28;20024;-41
2022/10/31 11:05:53;;;;;;;19.45;8.77;;;16.40;99.90;;;;;;5113200;28;20034;-38
2022/10/31 11:08:29;;;;;;;21.77;10.25;;;16.40;99.90;;;;;;5116822;28;20111;-36
2022/10/31 11:11:02;;;;;;;20.17;10.45;;;16.30;99.90;;;;;;5108792;28;20061;-38
2022/10/31 11:13:29;;;;;;;19.35;9.38;;;16.40;99.90;;;;;;5096417;28;20032;-43
2022/10/31 11:16:22;;;;;;;21.50;9.02;;;16.40;99.90;;;;;;5097035;28;20050;-39
2022/10/31 11:18:48;;;;;;;18.90;8.63;;;16.60;99.90;;;;;;5108664;28;20391;-43
2022/10/31 11:21:25;;;;;;;20.55;9.35;;;16.70;99.90;;;;;;5097178;28;20024;-43
2022/10/31 11:24:22;;;;;;;17.38;9.77;;;16.80;99.90;;;;;;5096041;28;20024;-42
2022/10/31 11:26:49;;;;;;;17.05;9.65;;;16.80;99.90;;;;;;5096086;28;20504;-42
2022/10/31 11:29:20;;;;;;;29.15;9.85;;;16.90;99.90;;;;;;5096055;28;20032;-43
2022/10/31 11:31:48;;;;;;;16.73;9.40;;;16.90;99.90;;;;;;5102789;28;20488;-43
2022/10/31 11:34:27;;;;;;;;;;;16.90;99.90;;;;;;5115312;28;20492;-42
2022/10/31 11:36:53;;;;;;;16.55;9.27;;;17.00;99.90;;;;;;5110425;28;20354;-41
2022/10/31 11:39:22;;;;;;;22.05;10.77;;;17.10;99.90;;;;;;5097199;28;20109;-39
2022/10/31 11:41:50;;;;;;;21.90;10.85;;;17.00;99.90;;;;;;5116323;28;20142;-39
2022/10/31 11:44:26;;;;;;;20.10;10.85;;;17.00;99.90;;;;;;5116290;28;20024;-39
2022/10/31 11:46:59;;;;;;;22.92;10.82;;;17.00;99.90;;;;;;5111849;28;20467;-37
2022/10/31 11:49:42;;;;;;;28.02;12.05;;;17.00;99.90;;;;;;5095909;28;20032;-40
2022/10/31 11:52:15;;;;;;;24.30;10.40;;;16.90;99.90;;;;;;5095707;28;20032;-41
2022/10/31 11:54:52;;;;;;;21.88;11.85;;;16.90;99.90;;;;;;5095584;28;20074;-41
2022/10/31 11:57:41;;;;;;;27.23;11.65;;;16.90;99.90;;;;;;5104418;28;20035;-48
2022/10/31 12:00:24;;;;;;;20.33;11.82;;;17.00;99.90;;;;;;5095257;28;20500;-41
2022/10/31 12:03:09;;;;;;;25.42;12.27;;;16.90;99.90;;;;;;5095493;28;20024;-38
2022/10/31 12:05:34;;;;;;;28.88;10.70;;;17.00;99.90;;;;;;5095114;28;20081;-36
2022/10/31 12:08:00;;;;;;;29.70;12.73;;;17.10;99.90;;;;;;5095331;28;20024;-43
2022/10/31 12:10:37;;;;;;;33.25;13.23;;;17.10;99.90;;;;;;5107608;28;20024;-33
2022/10/31 12:13:31;;;;;;;25.85;12.48;;;17.20;99.90;;;;;;5099681;28;20108;-39
2022/10/31 12:16:27;;;;;;;28.98;14.15;;;17.20;99.90;;;;;;5101884;28;20440;-34
2022/10/31 12:19:20;;;;;;;23.17;12.32;;;17.30;99.90;;;;;;5092020;28;20092;-45
2022/10/31 12:22:08;;;;;;;26.55;12.93;;;17.20;99.90;;;;;;5103775;28;20429;-40
2022/10/31 12:24:48;;;;;;;29.38;12.50;;;17.20;99.90;;;;;;5113780;27;20548;-35
2022/10/31 12:27:23;;;;;;;22.30;11.30;;;17.20;99.90;;;;;;5115322;28;20510;-39
2022/10/31 12:29:54;;;;;;;23.38;11.32;;;17.20;99.90;;;;;;5115428;28;20031;-46
2022/10/31 12:32:47;;;;;;;32.70;13.30;;;17.20;99.90;;;;;;5099724;28;20031;-48
2022/10/31 12:35:31;;;;;;;29.05;12.55;;;17.10;99.90;;;;;;5095226;28;20067;-45
2022/10/31 12:38:23;;;;;;;29.10;12.65;;;17.20;99.90;;;;;;5095051;28;20024;-45
2022/10/31 12:41:06;;;;;;;27.33;12.10;;;17.20;99.90;;;;;;5107807;28;20028;-50
2022/10/31 12:43:42;;;;;;;26.08;11.85;;;17.30;99.90;;;;;;5100350;28;20028;-43
2022/10/31 12:46:35;;;;;;;27.80;12.40;;;17.40;99.90;;;;;;5094252;28;20032;-43
2022/10/31 12:49:13;;;;;;;24.48;12.63;;;17.40;99.90;;;;;;5088237;28;20101;-43
2022/10/31 12:52:18;;;;;;;32.88;14.25;;;17.50;99.90;;;;;;5094807;28;20046;-41
2022/10/31 12:55:33;;;;;;;26.90;13.57;;;17.50;99.90;;;;;;5092734;28;20520;-44
2022/10/31 12:58:26;;;;;;;28.65;12.88;;;17.60;99.90;;;;;;5032192;28;20080;-43
2022/10/31 13:01:14;;;;;;;33.40;14.50;;;17.70;99.90;;;;;;5094542;28;20040;-45